x

Eel River - 17nm Wsw Of Eureka, Ca (46022) Wave Buoy

7:50am - Fri 12th Feb 2016 All times are PST. -8 hours from GMT.

  • Sig Wave height 17.1ft
  • Swell Direction
  • Peak Period 17s
  • Average Period 14s
  • Wind
    4mph, 9mph gusts
  • Sea Temp 53°f
  • Air Temp 53°f
  • Sea Pressure 1023.9mb
  • Eel River - 17nm Wsw Of Eureka, Ca
  • Eel River - 17nm Wsw Of Eureka, Ca

More Historic Weather Station data

Upgrade to MSW Pro to gain access to the past 30 days of data for over 8000 Wavebouys and Weather Stations around the globe.

Join Pro

Comparision Forecast

View Surf forecast
   
Fri 02/12 7:50am 17ft 17s 14s 4 9 mph 1023.9mb 53f 53f
6:50am 15ft 17s 14s 9 11 mph 1023.5mb 53f 53f
5:50am 13ft 17s 12s 11 16 mph 1023.1mb 53f 54f
4:50am 14ft 19s 12s 13 16 mph 1022.7mb 53f 53f
3:50am 16.5ft 19s 13s 9 11 mph 1023mb 53f 53f
2:50am 15.5ft 19s 13s 11 13 mph 1023.2mb 53f 54f
1:50am 17.5ft 19s 14s 11 13 mph 1022.7mb 54f 54f
12:50am 12.5ft 19s 12s 9 13 mph 1022.7mb 53f 54f
Thu 02/11 11:50pm 15ft 19s 13s 7 9 mph 1022.7mb 53f 54f
10:50pm 14ft 19s 12s 13 18 mph 1022.4mb 53f 55f
9:50pm 12.5ft 19s 11s 16 20 mph 1022.3mb 53f 53f
8:50pm 13ft 19s 12s 18 20 mph 1022.2mb 53f 53f
7:50pm 12.5ft 19s 12s 13 18 mph 1022.3mb 53f 54f
6:50pm 15.5ft 19s 14s 11 13 mph 1021.8mb 53f 53f
5:50pm 15.5ft 19s 13s 13 18 mph 1021.3mb 53f 52f
4:50pm 15.5ft 19s 13s 13 18 mph 1020.8mb 54f 52f
3:50pm 13ft 19s 12s 16 20 mph 1019.9mb 54f 53f
2:50pm 11.5ft 19s 12s 13 18 mph 1019.4mb 54f 54f
1:50pm 14ft 19s 14s 13 16 mph 1019.3mb 54f 53f
12:50pm 11ft 19s 12s 13 16 mph 1020mb 54f 54f
11:50am 11ft 19s 13s 7 9 mph 1020.4mb 54f 55f
10:50am 10.5ft 19s 12s 9 11 mph 1020.6mb 53f 54f
9:50am 9ft 21s 11s 7 9 mph 1020.8mb 53f 55f
8:50am 10ft 21s 11s 7 9 mph 1021mb 53f 54f
7:50am 10ft 21s 12s 2 7 mph 1020.7mb 53f 54f
6:50am 9.5ft 21s 12s 9 13 mph 1019.9mb 53f 53f
5:50am 9ft 21s 11s 9 11 mph 1020.4mb 53f 53f
4:50am 9.5ft 21s 10s 2 4 mph 1020.8mb 53f 53f
3:50am 10ft 21s 10s  -  4 mph 1020.9mb 53f 53f
2:50am 9ft 24s 9s 4 7 mph 1021.1mb 53f 53f
1:50am 8.5ft 11s 9s 4 7 mph 1020.7mb 54f 53f
12:50am 7.5ft 12s 9s 4 7 mph 1021.2mb 54f 53f
Wed 02/10 11:50pm 6.5ft 11s 9s 4 7 mph 1021.9mb 54f 53f
10:50pm 6.5ft 10s 9s 4 7 mph 1022.1mb 54f 53f
9:50pm 6ft 13s 9s 9 11 mph 1023mb 54f 52f
8:50pm 5.5ft 12s 9s 4
mph
1022.6mb 54f 53f
7:50pm 5ft 13s 9s 4 7 mph 1023.2mb 54f 52f
6:50pm 5ft 12s 9s 4 7 mph 1023.3mb 54f 53f
5:50pm 5.5ft 11s 9s 2 4 mph 1023.3mb 54f 53f
4:50pm 5.5ft 11s 8s 4
mph
1023.1mb 54f 54f
3:50pm 5.5ft 10s 8s 4 7 mph 1023.8mb 55f 55f
2:50pm 6ft 12s 8s 2 4 mph 1024.4mb 55f 56f
1:50pm 6ft 10s 8s  -  2 mph 1025mb 54f 57f
12:50pm 6ft 11s 8s 2 4 mph 1025.7mb 54f 56f
11:50am 5.5ft 12s 8s 2 4 mph 1026.3mb 54f 55f
10:50am 6ft 13s 8s 7 9 mph 1026.3mb 53f 54f
9:50am 6ft 12s 8s 9
mph
1026.1mb 53f 55f
8:50am 6ft 12s 9s 9 11 mph 1025.7mb 53f 54f
7:50am 6ft 12s 9s 9
mph
1025.4mb 53f 55f
6:50am 6.5ft 11s 9s 9 11 mph 1025mb 54f 54f
5:50am 6.5ft 12s 9s 9
mph
1024mb 54f 54f
4:50am 6.5ft 13s 9s 7 9 mph 1023.5mb 54f 54f
3:50am 7ft 12s 9s 9 11 mph 1023.1mb 54f 55f
2:50am 6ft 13s 8s 11 13 mph 1023.1mb 54f 55f
1:50am 5.5ft 11s 7s 11 13 mph 1022.8mb 54f 55f
12:50am 6ft 13s 8s 13 18 mph 1021.6mb 54f 55f
Tue 02/09 11:50pm 5ft 13s 9s 18 22 mph 1022mb 54f 56f
10:50pm 5.5ft 14s 9s 9 11 mph 1021.4mb 54f 55f
9:50pm 5ft 14s 9s 9 11 mph 1020.7mb 54f 56f
8:50pm 5ft 13s 9s 4
mph
1019.9mb 54f 55f
7:50pm 6ft 14s 10s  -  2 mph 1020mb 54f 56f
6:50pm 5.5ft 14s 10s 2 7 mph 1020.3mb 54f 56f
5:50pm 7ft 14s 10s 11 13 mph 1020.6mb 54f 60f
4:50pm 7ft 13s 9s 11 13 mph 1020.8mb 54f 58f
3:50pm 8ft 12s 10s 4 7 mph 1021.7mb 54f 57f
2:50pm 8ft 14s 9s 9 11 mph 1022.1mb 54f 56f
1:50pm 9ft 14s 9s 16 20 mph 1022mb 54f 57f
12:50pm 9ft 13s 10s 16 18 mph 1022mb 53f 57f
11:50am 8ft 13s 11s 18 22 mph 1021.4mb 53f 58f
10:50am 8ft 14s 11s 7 9 mph 1021.1mb 53f 59f
9:50am 8.5ft 13s 11s 7 9 mph 1020.7mb 53f 57f
8:50am 8ft 14s 11s 9 13 mph 1021.1mb 53f 56f
7:50am 7ft 14s 12s 9 11 mph 1020.7mb 53f 56f
6:50am 6.5ft 15s 11s 9 11 mph 1020.8mb 53f 56f
5:50am 6.5ft 15s 11s 9 11 mph 1020.5mb 53f 55f
4:50am 7ft 15s 11s 11 13 mph 1020.2mb 53f 55f
3:50am 8ft 15s 11s 9 11 mph 1019.9mb 53f 55f
2:50am 8.5ft 15s 11s 9 11 mph 1020.2mb 53f 55f
1:50am 8ft 15s 11s 9 13 mph 1020.9mb 53f 55f
12:50am 9.5ft 15s 12s 7 11 mph 1021mb 53f 55f
Mon 02/08 11:50pm 10.5ft 15s 12s 7 11 mph 1021mb 54f 56f
10:50pm 10ft 15s 12s 7 11 mph 1021mb 54f 56f
9:50pm 9ft 16s 12s 7 11 mph 1021.2mb 54f 57f
8:50pm 9ft 15s 12s 7 11 mph 1021.2mb 54f 56f
7:50pm 10ft 15s 12s 4 9 mph 1021.4mb 55f 58f
6:50pm 10.5ft 14s 13s 4 7 mph 1021.4mb 55f 60f
5:50pm 10ft 14s 12s 2 4 mph 1021.4mb 55f 60f
4:50pm 9.5ft 15s 12s 2 4 mph 1021.4mb 55f 61f